createdAt,value
2022-12-04T00:01:04.437Z,18.011278
2022-12-04T00:06:05.952Z,17.581476
2022-12-04T00:11:07.546Z,18.056818
2022-12-04T00:16:09.203Z,17.2562
2022-12-04T00:21:10.699Z,17.782468
2022-12-04T00:26:12.360Z,17.619172
2022-12-04T00:31:14.148Z,17.98399
2022-12-04T00:36:15.677Z,18.111992
2022-12-04T00:41:17.365Z,17.831726
2022-12-04T00:46:19.009Z,17.829514
2022-12-04T00:51:20.521Z,17.475986
2022-12-04T00:56:22.542Z,17.457274
2022-12-04T01:01:24.216Z,17.560294
2022-12-04T01:06:25.777Z,17.886642
2022-12-04T01:11:27.497Z,17.588098
2022-12-04T01:16:29.141Z,17.88443
2022-12-04T01:21:30.853Z,17.474846
2022-12-04T01:26:32.527Z,16.36871
2022-12-04T01:31:34.104Z,17.234204
2022-12-04T01:36:35.752Z,17.388598
2022-12-04T01:41:37.432Z,18.0374
2022-12-04T01:46:39.009Z,17.28532
2022-12-04T01:51:40.580Z,17.39328
2022-12-04T01:56:42.222Z,17.026684
2022-12-04T02:01:43.779Z,16.758794
2022-12-04T02:06:45.333Z,16.549062
2022-12-04T02:11:48.030Z,16.422662
2022-12-04T02:16:49.816Z,17.087598
2022-12-04T02:21:51.492Z,17.208706
2022-12-04T02:26:53.108Z,17.070744
2022-12-04T02:31:54.638Z,17.28532
2022-12-04T02:36:56.087Z,17.604422
2022-12-04T02:41:57.722Z,17.044338
2022-12-04T02:46:59.243Z,16.774942
2022-12-04T02:52:00.853Z,16.606082
2022-12-04T02:57:03.149Z,16.575632
2022-12-04T03:02:04.818Z,16.42539
2022-12-04T03:07:06.439Z,16.72065
2022-12-04T03:12:08.164Z,16.875126
2022-12-04T03:17:10.139Z,16.793478
2022-12-04T03:22:11.822Z,16.8656
2022-12-04T03:27:14.301Z,17.451358
2022-12-04T03:32:15.850Z,17.97825
2022-12-04T03:37:17.439Z,17.816542
2022-12-04T03:42:19.008Z,17.366968
2022-12-04T03:47:20.585Z,17.929712
2022-12-04T03:52:22.121Z,18.04314
2022-12-04T03:57:23.837Z,18.145536
2022-12-04T04:02:25.544Z,17.909846
2022-12-04T04:07:33.375Z,18.547168
2022-12-04T04:12:36.922Z,17.938098
2022-12-04T04:17:39.090Z,18.369298
2022-12-04T04:22:40.814Z,18.303974
2022-12-04T04:27:42.558Z,18.393316
2022-12-04T04:32:44.173Z,18.573208
2022-12-04T04:37:45.687Z,18.919232
2022-12-04T04:42:47.387Z,19.93809
2022-12-04T04:47:48.946Z,20.909726
2022-12-04T04:52:50.542Z,20.904624
2022-12-04T04:57:52.272Z,21.415926
2022-12-04T05:02:53.789Z,21.993244
2022-12-04T05:07:55.416Z,22.788802
2022-12-04T05:12:56.989Z,23.178982
2022-12-04T05:17:58.452Z,23.363366
2022-12-04T05:22:59.947Z,24.89342
2022-12-04T05:28:01.796Z,23.95458
2022-12-04T05:33:03.328Z,23.40113
2022-12-04T05:38:04.912Z,24.332412
2022-12-04T05:43:06.490Z,24.509454
2022-12-04T05:48:07.986Z,25.564736
2022-12-04T05:53:09.717Z,26.29569
2022-12-04T05:58:11.500Z,25.289952
2022-12-04T06:03:13.338Z,24.732756
2022-12-04T06:08:15.104Z,25.205928
2022-12-04T06:13:16.731Z,26.416228
2022-12-04T06:18:18.342Z,25.707312
2022-12-04T06:23:19.859Z,27.036768
2022-12-04T06:28:21.660Z,26.405564
2022-12-04T06:33:23.261Z,27.276448
2022-12-04T06:38:25.072Z,27.42741
2022-12-04T06:43:26.849Z,27.777412
2022-12-04T06:48:28.342Z,29.181298
2022-12-04T06:53:29.801Z,27.296992
2022-12-04T06:58:31.428Z,27.833712
2022-12-04T07:03:33.043Z,28.41042
2022-12-04T07:08:34.479Z,27.665122
2022-12-04T07:13:35.928Z,27.486626
2022-12-04T07:18:37.417Z,27.9081
2022-12-04T07:23:38.960Z,27.425238
2022-12-04T07:28:40.831Z,28.746744
2022-12-04T07:33:42.277Z,28.15793
2022-12-04T07:38:43.792Z,28.022016
2022-12-04T07:43:45.298Z,28.96436
2022-12-04T07:48:46.778Z,29.570868
2022-12-04T07:53:48.340Z,29.478608
2022-12-04T07:58:50.094Z,28.98025
2022-12-04T08:03:51.552Z,29.630004
2022-12-04T08:08:53.102Z,29.535546
2022-12-04T08:13:54.604Z,30.07802
2022-12-04T08:18:56.198Z,30.055508
2022-12-04T08:23:57.910Z,30.10718
2022-12-04T08:28:59.681Z,29.817144
2022-12-04T08:34:01.238Z,30.760464
2022-12-04T08:39:02.838Z,30.399376
2022-12-04T08:44:04.506Z,30.396308
2022-12-04T08:49:06.036Z,31.133888
2022-12-04T08:54:07.651Z,31.804852
2022-12-04T08:59:09.350Z,30.458514
2022-12-04T09:04:10.868Z,30.796436
2022-12-04T09:09:12.411Z,30.8015
2022-12-04T09:14:13.948Z,30.99838
2022-12-04T09:19:15.481Z,31.77881
2022-12-04T09:24:16.979Z,31.553702
2022-12-04T09:29:18.841Z,30.717216
2022-12-04T09:34:20.502Z,29.490522
2022-12-04T09:39:22.028Z,29.02663
2022-12-04T09:44:23.652Z,31.15599
2022-12-04T09:49:25.236Z,31.08931
2022-12-04T09:54:26.753Z,29.225236
2022-12-04T09:59:28.813Z,29.413296
2022-12-04T10:04:30.292Z,30.860252
2022-12-04T10:09:31.961Z,30.713228
2022-12-04T10:14:33.512Z,29.44771
2022-12-04T10:19:35.003Z,29.828202
2022-12-04T10:24:36.832Z,30.720744
2022-12-04T10:29:38.600Z,30.950288
2022-12-04T10:34:44.065Z,31.381098
2022-12-04T10:39:47.235Z,30.489002
2022-12-04T10:44:48.718Z,30.355694
2022-12-04T10:49:50.441Z,30.865084
2022-12-04T10:54:51.957Z,30.492096
2022-12-04T10:59:54.224Z,31.822276
2022-12-04T11:04:56.201Z,31.214692
2022-12-04T11:09:58.017Z,31.344652
2022-12-04T11:14:59.890Z,32.230152
2022-12-04T11:20:01.366Z,32.117834
2022-12-04T11:25:02.928Z,31.463194
2022-12-04T11:30:04.793Z,31.699348
2022-12-04T11:35:06.433Z,30.72582
2022-12-04T11:40:07.966Z,31.274048
2022-12-04T11:45:09.427Z,31.056648
2022-12-04T11:50:11.084Z,31.444658
2022-12-04T11:55:12.844Z,31.551478
2022-12-04T12:00:14.952Z,30.725168
2022-12-04T12:05:16.557Z,31.15002
2022-12-04T12:10:18.123Z,31.446
2022-12-04T12:15:19.678Z,31.148026
2022-12-04T12:20:21.299Z,31.280682
2022-12-04T12:25:22.947Z,31.258374
2022-12-04T12:30:24.738Z,30.246228
2022-12-04T12:35:26.198Z,31.316438
2022-12-04T12:40:27.682Z,30.561614
2022-12-04T12:45:29.353Z,30.535126
2022-12-04T12:50:31.089Z,30.949176
2022-12-04T12:55:32.597Z,31.03282
2022-12-04T13:00:34.519Z,30.232306
2022-12-04T13:05:36.045Z,29.754492
2022-12-04T13:10:37.652Z,29.052222
2022-12-04T13:15:39.366Z,29.258346
2022-12-04T13:20:40.873Z,29.063024
2022-12-04T13:25:42.446Z,28.524296
2022-12-04T13:30:44.456Z,28.143396
2022-12-04T13:35:45.935Z,27.844974
2022-12-04T13:40:47.389Z,26.693184
2022-12-04T13:45:49.005Z,27.025762
2022-12-04T13:50:50.691Z,27.285782
2022-12-04T13:55:52.301Z,27.45505
2022-12-04T14:00:54.349Z,27.827998
2022-12-04T14:05:55.961Z,29.060608
2022-12-04T14:10:57.467Z,30.132338
2022-12-04T14:15:59.143Z,30.831528
2022-12-04T14:21:00.614Z,30.03081
2022-12-04T14:26:02.194Z,29.652938
2022-12-04T14:31:03.962Z,30.104048
2022-12-04T14:36:05.764Z,31.033254
2022-12-04T14:41:07.510Z,29.899714
2022-12-04T14:46:09.322Z,29.383498
2022-12-04T14:51:10.925Z,29.884272
2022-12-04T14:56:12.577Z,29.935904
2022-12-04T15:01:14.494Z,29.575738
2022-12-04T15:06:15.988Z,29.401586
2022-12-04T15:11:17.772Z,29.467128
2022-12-04T15:16:20.226Z,28.553674
2022-12-04T15:21:22.046Z,28.883402
2022-12-04T15:26:23.810Z,28.577272
2022-12-04T15:31:25.873Z,28.156614
2022-12-04T15:36:27.505Z,28.354838
2022-12-04T15:41:28.967Z,28.490996
2022-12-04T15:46:30.508Z,27.81588
2022-12-04T15:51:32.451Z,28.15793
2022-12-04T15:56:33.974Z,28.242212
2022-12-04T16:01:36.592Z,28.699074
2022-12-04T16:06:38.153Z,27.957534
2022-12-04T16:11:39.699Z,27.852478
2022-12-04T16:16:41.395Z,27.503766
2022-12-04T16:21:42.983Z,27.21377
2022-12-04T16:26:44.646Z,27.234518
2022-12-04T16:31:46.380Z,27.602418
2022-12-04T16:36:47.973Z,27.064342
2022-12-04T16:41:49.703Z,27.265172
2022-12-04T16:46:51.590Z,27.163658
2022-12-04T16:51:53.130Z,26.599312
2022-12-04T16:56:55.369Z,26.98424
2022-12-04T17:01:57.294Z,26.334704
2022-12-04T17:06:58.980Z,26.097236
2022-12-04T17:12:00.767Z,26.273382
2022-12-04T17:17:02.476Z,26.180892
2022-12-04T17:22:03.951Z,25.939408
2022-12-04T17:27:05.529Z,26.143372
2022-12-04T17:32:07.403Z,25.959314
2022-12-04T17:37:09.011Z,25.981378
2022-12-04T17:42:10.667Z,25.394804
2022-12-04T17:47:12.415Z,24.721874
2022-12-04T17:52:13.958Z,24.889404
2022-12-04T17:57:15.567Z,24.045904
2022-12-04T18:02:17.215Z,24.960468
2022-12-04T18:07:18.718Z,24.850568
2022-12-04T18:12:20.336Z,24.606912
2022-12-04T18:17:21.864Z,24.513784
2022-12-04T18:22:23.408Z,24.335466
2022-12-04T18:27:25.056Z,24.390436
2022-12-04T18:32:26.744Z,23.68308
2022-12-04T18:37:28.220Z,24.49039
2022-12-04T18:42:29.883Z,23.486714
2022-12-04T18:47:31.372Z,23.895878
2022-12-04T18:52:32.811Z,23.653118
2022-12-04T18:57:34.416Z,23.50521
2022-12-04T19:02:36.250Z,24.097156
2022-12-04T19:07:37.803Z,24.1307
2022-12-04T19:12:39.477Z,24.208142
2022-12-04T19:17:41.095Z,24.105976
2022-12-04T19:22:42.690Z,23.602598
2022-12-04T19:27:44.237Z,23.290742
2022-12-04T19:32:46.135Z,23.703434
2022-12-04T19:37:52.502Z,23.005658
2022-12-04T19:43:01.132Z,22.677708
2022-12-04T19:48:04.355Z,22.541768
2022-12-04T19:53:06.016Z,22.33338
2022-12-04T19:58:07.802Z,22.567618
2022-12-04T20:03:09.527Z,22.308764
2022-12-04T20:13:11.729Z,22.504682
2022-12-04T20:18:13.197Z,22.58325
2022-12-04T20:23:14.687Z,22.345796
2022-12-04T20:28:20.945Z,21.862542
2022-12-04T20:33:22.666Z,22.012608
2022-12-04T20:38:24.194Z,22.164248
2022-12-04T20:43:25.825Z,22.493514
2022-12-04T20:48:27.304Z,22.303526
2022-12-04T20:53:28.861Z,22.168468
2022-12-04T20:58:30.406Z,22.045772
2022-12-04T21:03:32.407Z,21.546194
2022-12-04T21:08:33.925Z,21.227458
2022-12-04T21:13:36.359Z,21.34265
2022-12-04T21:18:38.079Z,21.344414
2022-12-04T21:23:39.687Z,21.411502
2022-12-04T21:28:41.143Z,21.507032
2022-12-04T21:33:42.929Z,21.342596
2022-12-04T21:38:44.627Z,21.753958
2022-12-04T21:43:46.095Z,21.784218
2022-12-04T21:48:47.695Z,21.017116
2022-12-04T21:53:49.446Z,20.678392
2022-12-04T21:58:51.028Z,20.562494
2022-12-04T22:03:52.817Z,20.752984
2022-12-04T22:08:54.304Z,20.587272
2022-12-04T22:13:55.748Z,20.436324
2022-12-04T22:18:57.266Z,20.489042
2022-12-04T22:23:58.875Z,19.984362
2022-12-04T22:29:00.423Z,20.02214
2022-12-04T22:34:02.719Z,20.00378
2022-12-04T22:39:10.759Z,20.018978
2022-12-04T22:44:12.774Z,19.591984
2022-12-04T22:49:14.443Z,20.153738
2022-12-04T22:54:15.990Z,19.496916
2022-12-04T22:59:17.459Z,19.582092
2022-12-04T23:04:19.219Z,19.689346
2022-12-04T23:09:20.924Z,19.352956
2022-12-04T23:14:22.347Z,19.67541
2022-12-04T23:19:23.994Z,19.160078
2022-12-04T23:24:25.683Z,19.695452
2022-12-04T23:29:51.985Z,19.714056
2022-12-04T23:34:54.695Z,19.376418
2022-12-04T23:39:56.771Z,19.193432
2022-12-04T23:44:58.447Z,19.021044
2022-12-04T23:50:00.216Z,19.050952
2022-12-04T23:55:01.906Z,18.338766
